Close

Questo sito utlizza cookie. Può leggere come li usiamo nella nostra Privacy Policy.

Ronchi Tower
Ronchi Tower

From Facebook

METAR & TAF

2021/07/25 21:50 LIPQ 252150Z AUTO 02004KT 9999 NCD 24/20 Q1010
2021/07/25 18:21 TAF LIPQ 251700Z 2518/2618 21010KT 9999 FEW060 BECMG 2520/2522 06008KT BECMG 2608/2610 19012KT TEMPO 2608/2614 TSRA
2021/07/25 21:50 LIPZ 252150Z 07011KT 9999 FEW015 26/23 Q1010 NOSIG
2021/07/25 18:21 TAF TAF LIPZ 251700Z 2518/2624 08012KT 9999 FEW050 BECMG 2608/2610 16012KT TEMPO 2608/2618 4000 TSRA BECMG 2616/2618 08012KT
2021/07/25 21:50 LIPH 252150Z AUTO 05005KT 9999 FEW021/// 25/22 Q1010
2021/07/25 18:59 TAF COR LIPH 251756Z 2518/2618 10012KT 9999 SCT030 TEMPO 2518/2521 4000 TSRA BECMG 2519/2521 04007KT TEMPO 2609/2618 4000 TSRA BECMG 2610/2612 10012KT
2021/07/25 21:50 LIRF 252150Z 12012KT CAVOK 29/13 Q1011 NOSIG
2021/07/25 18:25 TAF LIRF 251700Z 2518/2624 16015KT 9999 SCT050 TEMPO 2518/2521 16016G28KT TEMPO 2609/2615 16018G30KT BECMG 2620/2622 VRB05KT
2021/07/25 21:50 LIML 252150Z AUTO VRB01KT 9999 FEW063/// SCT095/// 22/18 Q1010 RETS
2021/07/25 18:21 TAF TAF LIML 251700Z 2518/2618 VRB05KT 9999 SCT040 TEMPO 2518/2605 TSRA TEMPO 2612/2618 4000 TSRA
2021/07/25 21:50 EDDM 252150Z VRB02KT CAVOK 17/16 Q1013 NOSIG
2021/07/25 18:27 TAF EDDM 251700Z 2518/2624 24004KT 9999 SCT030 PROB30 TEMPO 2602/2605 2000 BCFG PROB30 TEMPO 2616/2619 26015G30KT TSRA BKN030CB
2021/07/25 21:50 EGSS 252150Z AUTO 34005KT 6000 BKN009 17/16 Q1009
2021/07/25 21:54 TAF AMD EGSS 252144Z 2521/2624 36006KT 9999 BKN020 TEMPO 2521/2524 4000 BR BKN009 TEMPO 2600/2608 3000 BR BKN004 PROB30 TEMPO 2610/2617 7000 SHRA BECMG 2621/2624 23010KT
2021/07/25 21:50 EDDF 252150Z 24003KT CAVOK 17/14 Q1011 NOSIG
2021/07/25 18:28 TAF EDDF 251700Z 2518/2624 19004KT 9999 FEW045 PROB30 TEMPO 2518/2520 22015G30KT TSRA BKN045CB BECMG 2608/2610 20009KT PROB40 TEMPO 2612/2619 22015G25KT TSRA BKN045CB

FlightRadar24

Radar Meteo

Traffic data

Agosto 2018

Passeggeri: 63892-12,9% (rank: 23)
Nazionali 34490 -19,8%
Internazionali 29193 -3,0%

Movimenti: 1307+11,7% (rank: 24)
Tot commerciale 556 -7,2%
Aviazione generale 751 +31,5%

Cargo (tons): 20,6+62,5% (rank: 21)

Gennaio - Agosto 2018

Passeggeri: 507438-3,5% (rank: 23)
Nazionali 322655 -4,9%
Internazionali 182927 -0,7%

Movimenti: 10366-4,25 (rank: 22)
Tot commerciale 5328 -11,0%
Aviazione generale 5038 +4,2%

Cargo (tons): 299,2+61,9% (rank: 20)

Photo

Douglas DC-6B
Douglas DC-6B
Distinct views: 29
Douglas DC-6B
Douglas DC-6B
Distinct views: 72
Reims F152 II
Reims F152 II
Distinct views: 168
Boeing 737-300
Boeing 737-300
Total views: 3829